PWSweather.com
Personal Weather Stations
Station Observations
DW1039
Liberty & Fairfield Townships, Hamilton, OH 45011

Liberty & Fairfield TownshipsHamilton, OH 45011

Lat: 39.3933, Lon: -84.477

Elevation: 780

Station Type: Davis Vantage Pro2 (Daytime Fan Aspirated)

http://www.lfweathercenter.com/

High Low Average
Temperature 27.8°F-2.3°F 19.8°F-6.8°F 23.8°F-4.6°F
Dew Point 18.8°F-7.3°F 14.5°F-9.7°F 16.9°F-8.4°F
Winds 14.0 mph SW22.5 mph SW Calm Calm 4.4 mph 7.1 mph
Wind Gusts 17.0 mph27.4 mph -- 9.9 mph15.9 mph
Humidity 81% 67% 75%
Pressure 30.62 in1036.90 in 30.51 in1033.20 in -
Precipitation 0.00 in0.00 in - -
Hour Temp Dew Point Humidity Winds Wind Gusts Pressure Precip Precip Rate Daily Precip Total
12:00 AM 22.4°F-5.3°C 16.0°F-8.9°C 76% 12.0 mph NW19.3 kmh NW 13.0 mph20.9 kmh 30.51 in1033.2 mb 0.00 in0.0 mm 0.00 in0.0 mm 0.00 in0.0 mm
12:10 AM 22.4°F-5.3°C 15.7°F-9.1°C 75% 8.0 mph NW12.9 kmh NW 11.0 mph17.7 kmh 30.51 in1033.2 mb 0.00 in0.0 mm 0.00 in0.0 mm 0.00 in0.0 mm
12:20 AM 22.3°F-5.4°C 15.6°F-9.1°C 75% 2.0 mph WNW3.2 kmh WNW 12.0 mph19.3 kmh 30.52 in1033.5 mb 0.00 in0.0 mm 0.00 in0.0 mm 0.00 in0.0 mm
12:30 AM 22.3°F-5.4°C 15.6°F-9.1°C 75% 9.0 mph NW14.5 kmh NW 11.0 mph17.7 kmh 30.52 in1033.5 mb 0.00 in0.0 mm 0.00 in0.0 mm 0.00 in0.0 mm
12:40 AM 22.1°F-5.5°C 15.1°F-9.4°C 74% 4.0 mph WNW6.4 kmh WNW 10.0 mph16.1 kmh 30.52 in1033.5 mb 0.00 in0.0 mm 0.00 in0.0 mm 0.00 in0.0 mm
12:50 AM 22.0°F-5.6°C 15.0°F-9.4°C 74% 9.0 mph W14.5 kmh W 9.0 mph14.5 kmh 30.52 in1033.5 mb 0.00 in0.0 mm 0.00 in0.0 mm 0.00 in0.0 mm
01:00 AM 22.1°F-5.5°C 15.1°F-9.4°C 74% 5.0 mph W8.0 kmh W 14.0 mph22.5 kmh 30.52 in1033.5 mb 0.00 in0.0 mm 0.00 in0.0 mm 0.00 in0.0 mm
01:10 AM 22.0°F-5.6°C 15.3°F-9.3°C 75% 3.0 mph W4.8 kmh W 14.0 mph22.5 kmh 30.52 in1033.5 mb 0.00 in0.0 mm 0.00 in0.0 mm 0.00 in0.0 mm
01:20 AM 21.9°F-5.6°C 15.5°F-9.2°C 76% 3.0 mph NW4.8 kmh NW 11.0 mph17.7 kmh 30.52 in1033.5 mb 0.00 in0.0 mm 0.00 in0.0 mm 0.00 in0.0 mm
01:30 AM 21.8°F-5.7°C 15.4°F-9.2°C 76% 11.0 mph W17.7 kmh W 16.0 mph25.7 kmh 30.52 in1033.5 mb 0.00 in0.0 mm 0.00 in0.0 mm 0.00 in0.0 mm
01:40 AM 21.8°F-5.7°C 15.7°F-9.1°C 77% 4.0 mph WNW6.4 kmh WNW 11.0 mph17.7 kmh 30.51 in1033.2 mb 0.00 in0.0 mm 0.00 in0.0 mm 0.00 in0.0 mm
01:50 AM 21.7°F-5.7°C 15.9°F-8.9°C 78% 6.0 mph WSW9.7 kmh WSW 14.0 mph22.5 kmh 30.52 in1033.5 mb 0.00 in0.0 mm 0.00 in0.0 mm 0.00 in0.0 mm
02:00 AM 21.5°F-5.8°C 15.7°F-9.1°C 78% 3.0 mph W4.8 kmh W 13.0 mph20.9 kmh 30.52 in1033.5 mb 0.00 in0.0 mm 0.00 in0.0 mm 0.00 in0.0 mm
02:10 AM 21.3°F-5.9°C 15.5°F-9.2°C 78% 6.0 mph WNW9.7 kmh WNW 14.0 mph22.5 kmh 30.52 in1033.5 mb 0.00 in0.0 mm 0.00 in0.0 mm 0.00 in0.0 mm
02:20 AM 21.2°F-6.0°C 15.7°F-9.1°C 79% 5.0 mph W8.0 kmh W 12.0 mph19.3 kmh 30.52 in1033.5 mb 0.00 in0.0 mm 0.00 in0.0 mm 0.00 in0.0 mm
02:30 AM 21.1°F-6.1°C 15.6°F-9.1°C 79% 7.0 mph WSW11.3 kmh WSW 15.0 mph24.1 kmh 30.52 in1033.5 mb 0.00 in0.0 mm 0.00 in0.0 mm 0.00 in0.0 mm
02:40 AM 20.9°F-6.2°C 15.4°F-9.2°C 79% 2.0 mph WSW3.2 kmh WSW 13.0 mph20.9 kmh 30.52 in1033.5 mb 0.00 in0.0 mm 0.00 in0.0 mm 0.00 in0.0 mm
02:50 AM 20.9°F-6.2°C 15.7°F-9.1°C 80% 6.0 mph WSW9.7 kmh WSW 13.0 mph20.9 kmh 30.52 in1033.5 mb 0.00 in0.0 mm 0.00 in0.0 mm 0.00 in0.0 mm
03:00 AM 20.9°F-6.2°C 15.7°F-9.1°C 80% 6.0 mph WSW9.7 kmh WSW 12.0 mph19.3 kmh 30.53 in1033.9 mb 0.00 in0.0 mm 0.00 in0.0 mm 0.00 in0.0 mm
03:10 AM 20.9°F-6.2°C 15.7°F-9.1°C 80% 4.0 mph WSW6.4 kmh WSW 12.0 mph19.3 kmh 30.53 in1033.9 mb 0.00 in0.0 mm 0.00 in0.0 mm 0.00 in0.0 mm
03:20 AM 20.9°F-6.2°C 15.7°F-9.1°C 80% 5.0 mph WSW8.0 kmh WSW 14.0 mph22.5 kmh 30.53 in1033.9 mb 0.00 in0.0 mm 0.00 in0.0 mm 0.00 in0.0 mm
03:30 AM 20.8°F-6.2°C 15.6°F-9.1°C 80% 11.0 mph WSW17.7 kmh WSW 15.0 mph24.1 kmh 30.53 in1033.9 mb 0.00 in0.0 mm 0.00 in0.0 mm 0.00 in0.0 mm
03:40 AM 20.7°F-6.3°C 15.5°F-9.2°C 80% 6.0 mph W9.7 kmh W 11.0 mph17.7 kmh 30.53 in1033.9 mb 0.00 in0.0 mm 0.00 in0.0 mm 0.00 in0.0 mm
03:50 AM 20.7°F-6.3°C 15.5°F-9.2°C 80% 7.0 mph WSW11.3 kmh WSW 11.0 mph17.7 kmh 30.53 in1033.9 mb 0.00 in0.0 mm 0.00 in0.0 mm 0.00 in0.0 mm
04:00 AM 20.7°F-6.3°C 15.8°F-9.0°C 81% 7.0 mph WNW11.3 kmh WNW 11.0 mph17.7 kmh 30.53 in1033.9 mb 0.00 in0.0 mm 0.00 in0.0 mm 0.00 in0.0 mm
04:10 AM 20.6°F-6.3°C 15.7°F-9.1°C 81% 9.0 mph WSW14.5 kmh WSW 10.0 mph16.1 kmh 30.53 in1033.9 mb 0.00 in0.0 mm 0.00 in0.0 mm 0.00 in0.0 mm
04:20 AM 20.6°F-6.3°C 15.7°F-9.1°C 81% 7.0 mph WSW11.3 kmh WSW 10.0 mph16.1 kmh 30.53 in1033.9 mb 0.00 in0.0 mm 0.00 in0.0 mm 0.00 in0.0 mm
04:30 AM 20.5°F-6.4°C 15.6°F-9.1°C 81% 5.0 mph WSW8.0 kmh WSW 10.0 mph16.1 kmh 30.53 in1033.9 mb 0.00 in0.0 mm 0.00 in0.0 mm 0.00 in0.0 mm
04:40 AM 20.3°F-6.5°C 15.4°F-9.2°C 81% Calm Calm 9.0 mph14.5 kmh 30.53 in1033.9 mb 0.00 in0.0 mm 0.00 in0.0 mm 0.00 in0.0 mm
04:50 AM 20.3°F-6.5°C 15.4°F-9.2°C 81% 4.0 mph WSW6.4 kmh WSW 5.0 mph8.0 kmh 30.53 in1033.9 mb 0.00 in0.0 mm 0.00 in0.0 mm 0.00 in0.0 mm
05:00 AM 20.2°F-6.6°C 15.3°F-9.3°C 81% 3.0 mph WSW4.8 kmh WSW 10.0 mph16.1 kmh 30.54 in1034.2 mb 0.00 in0.0 mm 0.00 in0.0 mm 0.00 in0.0 mm
05:10 AM 20.1°F-6.6°C 15.2°F-9.3°C 81% 6.0 mph WSW9.7 kmh WSW 9.0 mph14.5 kmh 30.54 in1034.2 mb 0.00 in0.0 mm 0.00 in0.0 mm 0.00 in0.0 mm
05:20 AM 20.1°F-6.6°C 15.2°F-9.3°C 81% 3.0 mph WSW4.8 kmh WSW 11.0 mph17.7 kmh 30.54 in1034.2 mb 0.00 in0.0 mm 0.00 in0.0 mm 0.00 in0.0 mm
05:30 AM 20.0°F-6.7°C 15.1°F-9.4°C 81% 3.0 mph WSW4.8 kmh WSW 10.0 mph16.1 kmh 30.54 in1034.2 mb 0.00 in0.0 mm 0.00 in0.0 mm 0.00 in0.0 mm
05:40 AM 20.0°F-6.7°C 15.1°F-9.4°C 81% 2.0 mph W3.2 kmh W 7.0 mph11.3 kmh 30.55 in1034.5 mb 0.00 in0.0 mm 0.00 in0.0 mm 0.00 in0.0 mm
05:50 AM 20.2°F-6.6°C 15.3°F-9.3°C 81% 4.0 mph WSW6.4 kmh WSW 13.0 mph20.9 kmh 30.55 in1034.5 mb 0.00 in0.0 mm 0.00 in0.0 mm 0.00 in0.0 mm
06:00 AM 20.5°F-6.4°C 15.6°F-9.1°C 81% 5.0 mph W8.0 kmh W 11.0 mph17.7 kmh 30.55 in1034.5 mb 0.00 in0.0 mm 0.00 in0.0 mm 0.00 in0.0 mm
06:10 AM 20.8°F-6.2°C 15.9°F-8.9°C 81% 9.0 mph WSW14.5 kmh WSW 13.0 mph20.9 kmh 30.55 in1034.5 mb 0.00 in0.0 mm 0.00 in0.0 mm 0.00 in0.0 mm
06:20 AM 21.3°F-5.9°C 16.4°F-8.7°C 81% 6.0 mph W9.7 kmh W 12.0 mph19.3 kmh 30.55 in1034.5 mb 0.00 in0.0 mm 0.00 in0.0 mm 0.00 in0.0 mm
06:30 AM 21.6°F-5.8°C 16.4°F-8.7°C 80% 4.0 mph W6.4 kmh W 11.0 mph17.7 kmh 30.55 in1034.5 mb 0.00 in0.0 mm 0.00 in0.0 mm 0.00 in0.0 mm
06:40 AM 21.7°F-5.7°C 16.5°F-8.6°C 80% 6.0 mph W9.7 kmh W 14.0 mph22.5 kmh 30.56 in1034.9 mb 0.00 in0.0 mm 0.00 in0.0 mm 0.00 in0.0 mm
06:50 AM 21.8°F-5.7°C 16.3°F-8.7°C 79% 2.0 mph W3.2 kmh W 15.0 mph24.1 kmh 30.56 in1034.9 mb 0.00 in0.0 mm 0.00 in0.0 mm 0.00 in0.0 mm
07:00 AM 21.8°F-5.7°C 16.0°F-8.9°C 78% Calm Calm 12.0 mph19.3 kmh 30.56 in1034.9 mb 0.00 in0.0 mm 0.00 in0.0 mm 0.00 in0.0 mm
07:10 AM 21.9°F-5.6°C 16.1°F-8.8°C 78% 2.0 mph WSW3.2 kmh WSW 10.0 mph16.1 kmh 30.57 in1035.2 mb 0.00 in0.0 mm 0.00 in0.0 mm 0.00 in0.0 mm
07:20 AM 22.0°F-5.6°C 16.2°F-8.8°C 78% 5.0 mph WSW8.0 kmh WSW 17.0 mph27.4 kmh 30.57 in1035.2 mb 0.00 in0.0 mm 0.00 in0.0 mm 0.00 in0.0 mm
07:30 AM 22.1°F-5.5°C 16.3°F-8.7°C 78% 2.0 mph W3.2 kmh W 10.0 mph16.1 kmh 30.57 in1035.2 mb 0.00 in0.0 mm 0.00 in0.0 mm 0.00 in0.0 mm
07:40 AM 22.1°F-5.5°C 16.0°F-8.9°C 77% 10.0 mph WSW16.1 kmh WSW 16.0 mph25.7 kmh 30.57 in1035.2 mb 0.00 in0.0 mm 0.00 in0.0 mm 0.00 in0.0 mm
07:50 AM 22.1°F-5.5°C 16.0°F-8.9°C 77% 6.0 mph W9.7 kmh W 12.0 mph19.3 kmh 30.57 in1035.2 mb 0.00 in0.0 mm 0.00 in0.0 mm 0.00 in0.0 mm
08:00 AM 22.1°F-5.5°C 16.0°F-8.9°C 77% 1.0 mph W1.6 kmh W 8.0 mph12.9 kmh 30.58 in1035.6 mb 0.00 in0.0 mm 0.00 in0.0 mm 0.00 in0.0 mm
08:10 AM 22.1°F-5.5°C 16.0°F-8.9°C 77% 5.0 mph WSW8.0 kmh WSW 9.0 mph14.5 kmh 30.58 in1035.6 mb 0.00 in0.0 mm 0.00 in0.0 mm 0.00 in0.0 mm
08:20 AM 22.2°F-5.4°C 16.1°F-8.8°C 77% 9.0 mph WSW14.5 kmh WSW 15.0 mph24.1 kmh 30.58 in1035.6 mb 0.00 in0.0 mm 0.00 in0.0 mm 0.00 in0.0 mm
08:30 AM 22.3°F-5.4°C 16.2°F-8.8°C 77% 12.0 mph WSW19.3 kmh WSW 13.0 mph20.9 kmh 30.59 in1035.9 mb 0.00 in0.0 mm 0.00 in0.0 mm 0.00 in0.0 mm
08:40 AM 22.4°F-5.3°C 16.3°F-8.7°C 77% 5.0 mph W8.0 kmh W 12.0 mph19.3 kmh 30.59 in1035.9 mb 0.00 in0.0 mm 0.00 in0.0 mm 0.00 in0.0 mm
08:50 AM 22.4°F-5.3°C 16.3°F-8.7°C 77% 6.0 mph WSW9.7 kmh WSW 12.0 mph19.3 kmh 30.59 in1035.9 mb 0.00 in0.0 mm 0.00 in0.0 mm 0.00 in0.0 mm
09:00 AM 22.5°F-5.3°C 16.1°F-8.8°C 76% 9.0 mph WSW14.5 kmh WSW 15.0 mph24.1 kmh 30.60 in1036.2 mb 0.00 in0.0 mm 0.00 in0.0 mm 0.00 in0.0 mm
09:10 AM 22.6°F-5.2°C 16.2°F-8.8°C 76% 3.0 mph W4.8 kmh W 12.0 mph19.3 kmh 30.60 in1036.2 mb 0.00 in0.0 mm 0.00 in0.0 mm 0.00 in0.0 mm
09:20 AM 22.9°F-5.1°C 16.5°F-8.6°C 76% 9.0 mph W14.5 kmh W 11.0 mph17.7 kmh 30.59 in1035.9 mb 0.00 in0.0 mm 0.00 in0.0 mm 0.00 in0.0 mm
09:30 AM 23.2°F-4.9°C 16.5°F-8.6°C 75% 3.0 mph SW4.8 kmh SW 11.0 mph17.7 kmh 30.60 in1036.2 mb 0.00 in0.0 mm 0.00 in0.0 mm 0.00 in0.0 mm
09:40 AM 23.4°F-4.8°C 16.7°F-8.5°C 75% 9.0 mph WSW14.5 kmh WSW 11.0 mph17.7 kmh 30.60 in1036.2 mb 0.00 in0.0 mm 0.00 in0.0 mm 0.00 in0.0 mm
09:50 AM 23.3°F-4.8°C 16.6°F-8.6°C 75% 5.0 mph WSW8.0 kmh WSW 12.0 mph19.3 kmh 30.60 in1036.2 mb 0.00 in0.0 mm 0.00 in0.0 mm 0.00 in0.0 mm
10:00 AM 23.5°F-4.7°C 16.8°F-8.4°C 75% 14.0 mph SW22.5 kmh SW 14.0 mph22.5 kmh 30.61 in1036.6 mb 0.00 in0.0 mm 0.00 in0.0 mm 0.00 in0.0 mm
10:10 AM 24.0°F-4.4°C 16.9°F-8.4°C 74% 11.0 mph WSW17.7 kmh WSW 11.0 mph17.7 kmh 30.61 in1036.6 mb 0.00 in0.0 mm 0.00 in0.0 mm 0.00 in0.0 mm
10:20 AM 24.6°F-4.1°C 17.5°F-8.1°C 74% 4.0 mph SW6.4 kmh SW 9.0 mph14.5 kmh 30.62 in1036.9 mb 0.00 in0.0 mm 0.00 in0.0 mm 0.00 in0.0 mm
10:30 AM 24.9°F-3.9°C 17.5°F-8.1°C 73% 5.0 mph SW8.0 kmh SW 12.0 mph19.3 kmh 30.62 in1036.9 mb 0.00 in0.0 mm 0.00 in0.0 mm 0.00 in0.0 mm
10:40 AM 24.9°F-3.9°C 17.8°F-7.9°C 74% 3.0 mph SW4.8 kmh SW 10.0 mph16.1 kmh 30.62 in1036.9 mb 0.00 in0.0 mm 0.00 in0.0 mm 0.00 in0.0 mm
10:50 AM 24.9°F-3.9°C 17.5°F-8.1°C 73% 10.0 mph SW16.1 kmh SW 12.0 mph19.3 kmh 30.62 in1036.9 mb 0.00 in0.0 mm 0.00 in0.0 mm 0.00 in0.0 mm
11:00 AM 25.4°F-3.7°C 18.3°F-7.6°C 74% 4.0 mph W6.4 kmh W 11.0 mph17.7 kmh 30.62 in1036.9 mb 0.00 in0.0 mm 0.00 in0.0 mm 0.00 in0.0 mm
11:10 AM 25.2°F-3.8°C 17.5°F-8.1°C 72% 2.0 mph WSW3.2 kmh WSW 12.0 mph19.3 kmh 30.62 in1036.9 mb 0.00 in0.0 mm 0.00 in0.0 mm 0.00 in0.0 mm
11:20 AM 25.1°F-3.8°C 17.4°F-8.1°C 72% 6.0 mph WSW9.7 kmh WSW 12.0 mph19.3 kmh 30.61 in1036.6 mb 0.00 in0.0 mm 0.00 in0.0 mm 0.00 in0.0 mm
11:30 AM 25.6°F-3.6°C 17.8°F-7.9°C 72% 5.0 mph W8.0 kmh W 12.0 mph19.3 kmh 30.61 in1036.6 mb 0.00 in0.0 mm 0.00 in0.0 mm 0.00 in0.0 mm
11:40 AM 25.8°F-3.4°C 17.7°F-7.9°C 71% 3.0 mph SW4.8 kmh SW 10.0 mph16.1 kmh 30.61 in1036.6 mb 0.00 in0.0 mm 0.00 in0.0 mm 0.00 in0.0 mm
11:50 AM 26.0°F-3.3°C 17.9°F-7.8°C 71% 4.0 mph WSW6.4 kmh WSW 9.0 mph14.5 kmh 30.61 in1036.6 mb 0.00 in0.0 mm 0.00 in0.0 mm 0.00 in0.0 mm
12:00 PM 26.4°F-3.1°C 18.3°F-7.6°C 71% 5.0 mph WNW8.0 kmh WNW 11.0 mph17.7 kmh 30.60 in1036.2 mb 0.00 in0.0 mm 0.00 in0.0 mm 0.00 in0.0 mm
12:10 PM 26.7°F-2.9°C 18.3°F-7.6°C 70% 7.0 mph WSW11.3 kmh WSW 12.0 mph19.3 kmh 30.61 in1036.6 mb 0.00 in0.0 mm 0.00 in0.0 mm 0.00 in0.0 mm
12:20 PM 26.3°F-3.2°C 17.5°F-8.1°C 69% 6.0 mph WSW9.7 kmh WSW 14.0 mph22.5 kmh 30.60 in1036.2 mb 0.00 in0.0 mm 0.00 in0.0 mm 0.00 in0.0 mm
12:30 PM 26.5°F-3.1°C 17.7°F-7.9°C 69% 2.0 mph WSW3.2 kmh WSW 10.0 mph16.1 kmh 30.60 in1036.2 mb 0.00 in0.0 mm 0.00 in0.0 mm 0.00 in0.0 mm
12:40 PM 26.7°F-2.9°C 18.3°F-7.6°C 70% 2.0 mph WSW3.2 kmh WSW 7.0 mph11.3 kmh 30.60 in1036.2 mb 0.00 in0.0 mm 0.00 in0.0 mm 0.00 in0.0 mm
12:50 PM 26.5°F-3.1°C 17.7°F-7.9°C 69% 5.0 mph W8.0 kmh W 9.0 mph14.5 kmh 30.59 in1035.9 mb 0.00 in0.0 mm 0.00 in0.0 mm 0.00 in0.0 mm
01:00 PM 26.6°F-3.0°C 17.8°F-7.9°C 69% 5.0 mph WSW8.0 kmh WSW 11.0 mph17.7 kmh 30.59 in1035.9 mb 0.00 in0.0 mm 0.00 in0.0 mm 0.00 in0.0 mm
01:10 PM 26.5°F-3.1°C 18.1°F-7.7°C 70% 7.0 mph WSW11.3 kmh WSW 11.0 mph17.7 kmh 30.58 in1035.6 mb 0.00 in0.0 mm 0.00 in0.0 mm 0.00 in0.0 mm
01:20 PM 26.7°F-2.9°C 18.3°F-7.6°C 70% 3.0 mph WSW4.8 kmh WSW 10.0 mph16.1 kmh 30.58 in1035.6 mb 0.00 in0.0 mm 0.00 in0.0 mm 0.00 in0.0 mm
01:30 PM 26.8°F-2.9°C 18.3°F-7.6°C 70% 4.0 mph WSW6.4 kmh WSW 9.0 mph14.5 kmh 30.58 in1035.6 mb 0.00 in0.0 mm 0.00 in0.0 mm 0.00 in0.0 mm
01:40 PM 26.6°F-3.0°C 17.8°F-7.9°C 69% 8.0 mph WSW12.9 kmh WSW 9.0 mph14.5 kmh 30.57 in1035.2 mb 0.00 in0.0 mm 0.00 in0.0 mm 0.00 in0.0 mm
01:50 PM 27.0°F-2.8°C 18.5°F-7.5°C 70% 7.0 mph WSW11.3 kmh WSW 12.0 mph19.3 kmh 30.57 in1035.2 mb 0.00 in0.0 mm 0.00 in0.0 mm 0.00 in0.0 mm
02:00 PM 27.6°F-2.4°C 18.8°F-7.3°C 69% 3.0 mph SW4.8 kmh SW 10.0 mph16.1 kmh 30.58 in1035.6 mb 0.00 in0.0 mm 0.00 in0.0 mm 0.00 in0.0 mm
02:10 PM 27.4°F-2.6°C 18.2°F-7.7°C 68% 4.0 mph WSW6.4 kmh WSW 10.0 mph16.1 kmh 30.57 in1035.2 mb 0.00 in0.0 mm 0.00 in0.0 mm 0.00 in0.0 mm
02:20 PM 27.6°F-2.4°C 18.8°F-7.3°C 69% Calm Calm 5.0 mph8.0 kmh 30.57 in1035.2 mb 0.00 in0.0 mm 0.00 in0.0 mm 0.00 in0.0 mm
02:30 PM 27.7°F-2.4°C 18.5°F-7.5°C 68% Calm Calm 7.0 mph11.3 kmh 30.57 in1035.2 mb 0.00 in0.0 mm 0.00 in0.0 mm 0.00 in0.0 mm
02:40 PM 27.8°F-2.3°C 18.6°F-7.4°C 68% 1.0 mph WSW1.6 kmh WSW 9.0 mph14.5 kmh 30.57 in1035.2 mb 0.00 in0.0 mm 0.00 in0.0 mm 0.00 in0.0 mm
02:50 PM 27.7°F-2.4°C 18.5°F-7.5°C 68% 10.0 mph WSW16.1 kmh WSW 12.0 mph19.3 kmh 30.57 in1035.2 mb 0.00 in0.0 mm 0.00 in0.0 mm 0.00 in0.0 mm
03:00 PM 27.6°F-2.4°C 18.4°F-7.6°C 68% 4.0 mph WSW6.4 kmh WSW 11.0 mph17.7 kmh 30.57 in1035.2 mb 0.00 in0.0 mm 0.00 in0.0 mm 0.00 in0.0 mm
03:10 PM 27.6°F-2.4°C 18.4°F-7.6°C 68% 3.0 mph SW4.8 kmh SW 8.0 mph12.9 kmh 30.57 in1035.2 mb 0.00 in0.0 mm 0.00 in0.0 mm 0.00 in0.0 mm
03:20 PM 27.4°F-2.6°C 18.2°F-7.7°C 68% 7.0 mph W11.3 kmh W 11.0 mph17.7 kmh 30.58 in1035.6 mb 0.00 in0.0 mm 0.00 in0.0 mm 0.00 in0.0 mm
03:30 PM 27.7°F-2.4°C 18.5°F-7.5°C 68% 4.0 mph W6.4 kmh W 10.0 mph16.1 kmh 30.58 in1035.6 mb 0.00 in0.0 mm 0.00 in0.0 mm 0.00 in0.0 mm
03:40 PM 27.6°F-2.4°C 18.1°F-7.7°C 67% 4.0 mph SW6.4 kmh SW 11.0 mph17.7 kmh 30.58 in1035.6 mb 0.00 in0.0 mm 0.00 in0.0 mm 0.00 in0.0 mm
03:50 PM 27.6°F-2.4°C 18.4°F-7.6°C 68% 4.0 mph WSW6.4 kmh WSW 8.0 mph12.9 kmh 30.58 in1035.6 mb 0.00 in0.0 mm 0.00 in0.0 mm 0.00 in0.0 mm
04:00 PM 27.4°F-2.6°C 17.9°F-7.8°C 67% 1.0 mph WSW1.6 kmh WSW 10.0 mph16.1 kmh 30.59 in1035.9 mb 0.00 in0.0 mm 0.00 in0.0 mm 0.00 in0.0 mm
04:10 PM 27.3°F-2.6°C 18.2°F-7.7°C 68% 2.0 mph WSW3.2 kmh WSW 12.0 mph19.3 kmh 30.59 in1035.9 mb 0.00 in0.0 mm 0.00 in0.0 mm 0.00 in0.0 mm
04:20 PM 27.1°F-2.7°C 18.0°F-7.8°C 68% 5.0 mph WSW8.0 kmh WSW 11.0 mph17.7 kmh 30.59 in1035.9 mb 0.00 in0.0 mm 0.00 in0.0 mm 0.00 in0.0 mm
04:30 PM 26.9°F-2.8°C 17.8°F-7.9°C 68% 3.0 mph WSW4.8 kmh WSW 10.0 mph16.1 kmh 30.59 in1035.9 mb 0.00 in0.0 mm 0.00 in0.0 mm 0.00 in0.0 mm
04:40 PM 26.8°F-2.9°C 17.7°F-7.9°C 68% 3.0 mph SW4.8 kmh SW 10.0 mph16.1 kmh 30.59 in1035.9 mb 0.00 in0.0 mm 0.00 in0.0 mm 0.00 in0.0 mm
04:50 PM 26.6°F-3.0°C 17.8°F-7.9°C 69% 1.0 mph SW1.6 kmh SW 11.0 mph17.7 kmh 30.59 in1035.9 mb 0.00 in0.0 mm 0.00 in0.0 mm 0.00 in0.0 mm
05:00 PM 26.4°F-3.1°C 17.6°F-8.0°C 69% 2.0 mph SW3.2 kmh SW 13.0 mph20.9 kmh 30.59 in1035.9 mb 0.00 in0.0 mm 0.00 in0.0 mm 0.00 in0.0 mm
05:10 PM 26.2°F-3.2°C 17.8°F-7.9°C 70% 1.0 mph SW1.6 kmh SW 11.0 mph17.7 kmh 30.58 in1035.6 mb 0.00 in0.0 mm 0.00 in0.0 mm 0.00 in0.0 mm
05:20 PM 26.1°F-3.3°C 17.7°F-7.9°C 70% 5.0 mph SW8.0 kmh SW 10.0 mph16.1 kmh 30.58 in1035.6 mb 0.00 in0.0 mm 0.00 in0.0 mm 0.00 in0.0 mm
05:30 PM 25.9°F-3.4°C 17.8°F-7.9°C 71% 3.0 mph WSW4.8 kmh WSW 12.0 mph19.3 kmh 30.58 in1035.6 mb 0.00 in0.0 mm 0.00 in0.0 mm 0.00 in0.0 mm
05:40 PM 25.8°F-3.4°C 17.7°F-7.9°C 71% 5.0 mph WSW8.0 kmh WSW 10.0 mph16.1 kmh 30.59 in1035.9 mb 0.00 in0.0 mm 0.00 in0.0 mm 0.00 in0.0 mm
05:50 PM 25.8°F-3.4°C 17.7°F-7.9°C 71% 5.0 mph WSW8.0 kmh WSW 11.0 mph17.7 kmh 30.59 in1035.9 mb 0.00 in0.0 mm 0.00 in0.0 mm 0.00 in0.0 mm
06:00 PM 25.9°F-3.4°C 17.8°F-7.9°C 71% 2.0 mph SW3.2 kmh SW 9.0 mph14.5 kmh 30.59 in1035.9 mb 0.00 in0.0 mm 0.00 in0.0 mm 0.00 in0.0 mm
06:10 PM 25.9°F-3.4°C 17.8°F-7.9°C 71% 5.0 mph SW8.0 kmh SW 8.0 mph12.9 kmh 30.59 in1035.9 mb 0.00 in0.0 mm 0.00 in0.0 mm 0.00 in0.0 mm
06:20 PM 25.8°F-3.4°C 17.7°F-7.9°C 71% 5.0 mph WSW8.0 kmh WSW 11.0 mph17.7 kmh 30.60 in1036.2 mb 0.00 in0.0 mm 0.00 in0.0 mm 0.00 in0.0 mm
06:30 PM 25.7°F-3.5°C 17.6°F-8.0°C 71% 7.0 mph SSW11.3 kmh SSW 8.0 mph12.9 kmh 30.59 in1035.9 mb 0.00 in0.0 mm 0.00 in0.0 mm 0.00 in0.0 mm
06:40 PM 25.6°F-3.6°C 17.5°F-8.1°C 71% 7.0 mph SW11.3 kmh SW 10.0 mph16.1 kmh 30.60 in1036.2 mb 0.00 in0.0 mm 0.00 in0.0 mm 0.00 in0.0 mm
06:50 PM 25.6°F-3.6°C 17.8°F-7.9°C 72% 4.0 mph SW6.4 kmh SW 6.0 mph9.7 kmh 30.61 in1036.6 mb 0.00 in0.0 mm 0.00 in0.0 mm 0.00 in0.0 mm
07:00 PM 25.5°F-3.6°C 17.8°F-7.9°C 72% 5.0 mph SW8.0 kmh SW 13.0 mph20.9 kmh 30.61 in1036.6 mb 0.00 in0.0 mm 0.00 in0.0 mm 0.00 in0.0 mm
07:10 PM 25.3°F-3.7°C 17.9°F-7.8°C 73% 5.0 mph SW8.0 kmh SW 15.0 mph24.1 kmh 30.61 in1036.6 mb 0.00 in0.0 mm 0.00 in0.0 mm 0.00 in0.0 mm
07:20 PM 25.1°F-3.8°C 17.7°F-7.9°C 73% 4.0 mph WSW6.4 kmh WSW 11.0 mph17.7 kmh 30.60 in1036.2 mb 0.00 in0.0 mm 0.00 in0.0 mm 0.00 in0.0 mm
07:30 PM 25.0°F-3.9°C 17.9°F-7.8°C 74% 4.0 mph SW6.4 kmh SW 7.0 mph11.3 kmh 30.61 in1036.6 mb 0.00 in0.0 mm 0.00 in0.0 mm 0.00 in0.0 mm
07:40 PM 25.1°F-3.8°C 18.0°F-7.8°C 74% 11.0 mph SW17.7 kmh SW 11.0 mph17.7 kmh 30.61 in1036.6 mb 0.00 in0.0 mm 0.00 in0.0 mm 0.00 in0.0 mm
07:50 PM 25.0°F-3.9°C 17.9°F-7.8°C 74% 9.0 mph W14.5 kmh W 12.0 mph19.3 kmh 30.62 in1036.9 mb 0.00 in0.0 mm 0.00 in0.0 mm 0.00 in0.0 mm
08:00 PM 25.0°F-3.9°C 17.9°F-7.8°C 74% 4.0 mph WSW6.4 kmh WSW 10.0 mph16.1 kmh 30.62 in1036.9 mb 0.00 in0.0 mm 0.00 in0.0 mm 0.00 in0.0 mm
08:10 PM 24.9°F-3.9°C 17.8°F-7.9°C 74% 4.0 mph WSW6.4 kmh WSW 11.0 mph17.7 kmh 30.62 in1036.9 mb 0.00 in0.0 mm 0.00 in0.0 mm 0.00 in0.0 mm
08:20 PM 24.9°F-3.9°C 17.8°F-7.9°C 74% 1.0 mph SW1.6 kmh SW 9.0 mph14.5 kmh 30.62 in1036.9 mb 0.00 in0.0 mm 0.00 in0.0 mm 0.00 in0.0 mm
08:30 PM 24.8°F-4.0°C 17.7°F-7.9°C 74% 3.0 mph WSW4.8 kmh WSW 7.0 mph11.3 kmh 30.62 in1036.9 mb 0.00 in0.0 mm 0.00 in0.0 mm 0.00 in0.0 mm
08:40 PM 24.7°F-4.1°C 17.6°F-8.0°C 74% 5.0 mph WSW8.0 kmh WSW 12.0 mph19.3 kmh 30.62 in1036.9 mb 0.00 in0.0 mm 0.00 in0.0 mm 0.00 in0.0 mm
08:50 PM 24.6°F-4.1°C 17.5°F-8.1°C 74% 2.0 mph WSW3.2 kmh WSW 10.0 mph16.1 kmh 30.62 in1036.9 mb 0.00 in0.0 mm 0.00 in0.0 mm 0.00 in0.0 mm
09:00 PM 24.6°F-4.1°C 17.8°F-7.9°C 75% Calm Calm 6.0 mph9.7 kmh 30.61 in1036.6 mb 0.00 in0.0 mm 0.00 in0.0 mm 0.00 in0.0 mm
09:10 PM 24.6°F-4.1°C 17.8°F-7.9°C 75% 5.0 mph WSW8.0 kmh WSW 6.0 mph9.7 kmh 30.61 in1036.6 mb 0.00 in0.0 mm 0.00 in0.0 mm 0.00 in0.0 mm
09:20 PM 24.5°F-4.2°C 17.7°F-7.9°C 75% Calm Calm 5.0 mph8.0 kmh 30.61 in1036.6 mb 0.00 in0.0 mm 0.00 in0.0 mm 0.00 in0.0 mm
09:30 PM 24.5°F-4.2°C 17.7°F-7.9°C 75% 2.0 mph SW3.2 kmh SW 4.0 mph6.4 kmh 30.60 in1036.2 mb 0.00 in0.0 mm 0.00 in0.0 mm 0.00 in0.0 mm
09:40 PM 24.5°F-4.2°C 17.7°F-7.9°C 75% 2.0 mph SW3.2 kmh SW 4.0 mph6.4 kmh 30.60 in1036.2 mb 0.00 in0.0 mm 0.00 in0.0 mm 0.00 in0.0 mm
09:50 PM 24.4°F-4.2°C 17.6°F-8.0°C 75% Calm Calm 2.0 mph3.2 kmh 30.59 in1035.9 mb 0.00 in0.0 mm 0.00 in0.0 mm 0.00 in0.0 mm
10:00 PM 24.4°F-4.2°C 17.6°F-8.0°C 75% Calm Calm 4.0 mph6.4 kmh 30.59 in1035.9 mb 0.00 in0.0 mm 0.00 in0.0 mm 0.00 in0.0 mm
10:10 PM 24.3°F-4.3°C 17.5°F-8.1°C 75% Calm Calm 2.0 mph3.2 kmh 30.59 in1035.9 mb 0.00 in0.0 mm 0.00 in0.0 mm 0.00 in0.0 mm
10:20 PM 24.0°F-4.4°C 17.2°F-8.2°C 75% Calm Calm 3.0 mph4.8 kmh 30.59 in1035.9 mb 0.00 in0.0 mm 0.00 in0.0 mm 0.00 in0.0 mm
10:30 PM 23.6°F-4.7°C 16.9°F-8.4°C 75% Calm Calm 3.0 mph4.8 kmh 30.59 in1035.9 mb 0.00 in0.0 mm 0.00 in0.0 mm 0.00 in0.0 mm
10:40 PM 23.1°F-4.9°C 16.4°F-8.7°C 75% Calm Calm -- 30.59 in1035.9 mb 0.00 in0.0 mm 0.00 in0.0 mm 0.00 in0.0 mm
10:50 PM 22.5°F-5.3°C 16.1°F-8.8°C 76% Calm Calm -- 30.59 in1035.9 mb 0.00 in0.0 mm 0.00 in0.0 mm 0.00 in0.0 mm
11:00 PM 22.0°F-5.6°C 15.6°F-9.1°C 76% Calm Calm -- 30.59 in1035.9 mb 0.00 in0.0 mm 0.00 in0.0 mm 0.00 in0.0 mm
11:10 PM 21.6°F-5.8°C 15.5°F-9.2°C 77% Calm Calm -- 30.59 in1035.9 mb 0.00 in0.0 mm 0.00 in0.0 mm 0.00 in0.0 mm
11:20 PM 21.3°F-5.9°C 15.5°F-9.2°C 78% Calm Calm -- 30.58 in1035.6 mb 0.00 in0.0 mm 0.00 in0.0 mm 0.00 in0.0 mm
11:30 PM 20.8°F-6.2°C 15.0°F-9.4°C 78% Calm Calm -- 30.59 in1035.9 mb 0.00 in0.0 mm 0.00 in0.0 mm 0.00 in0.0 mm
11:40 PM 20.2°F-6.6°C 14.5°F-9.7°C 78% Calm Calm -- 30.59 in1035.9 mb 0.00 in0.0 mm 0.00 in0.0 mm 0.00 in0.0 mm
11:50 PM 19.8°F-6.8°C 14.6°F-9.7°C 80% Calm Calm -- 30.59 in1035.9 mb 0.00 in0.0 mm 0.00 in0.0 mm 0.00 in0.0 mm